Terminal Aerodrome Forecast
Issued by NWS

Home | Current Version | Previous Version | Text Only | Print | Product List | Glossary On
Versions: 1 2 3 4 5 6 7 8 9 10 11 12 13 14 15 16
000
FTUS41 KPHI 011100
TAFPNE
TAF
KPNE 011136Z 0112/0212 05008KT P6SM BKN017 OVC029
      TEMPO 0112/0114 SCT017 BKN100
     FM011400 03009KT P6SM BKN025
     FM011700 04009KT P6SM BKN040
     FM020100 05007KT P6SM SCT015
     FM020500 04006KT 6SM BR SCT009=

USA.gov is the U.S. government's official web portal to all federal, state and local government web resources and services.